Flight Track Log - Related Links

Times and Time Zones

All times are in EDT time to prevent confusion due to time zone crossing. See the AVN31 flight status page for this flight to view local times or setup timezone preferences in your user account.

Time Position Orientation Groundspeed Altitude Reporting Facility
EDT Latitude Longitude Course Direction KTS MPH feet Rate Location/Type
Thu 07:33:27 -37.6590 144.8010 274° West 162 186 1,300  Level FlightAware ADS-B
Thu 07:33:38 -37.6585 144.7900 275° West 154 177 2,100 2,100 Climbing Aus ATC (RADAR)
Thu 07:33:47 -37.6580 144.7830 274° West 170 196 2,000 621 Descending FlightAware ADS-B
Thu 07:34:07 -37.6570 144.7600 273° West 203 234 2,400 1,800 Climbing FlightAware ADS-B
Thu 07:34:27 -37.6560 144.7360 273° West 217 250 3,200 2,550 Climbing FlightAware ADS-B
Thu 07:34:47 -37.6500 144.7100 286° West 234 269 4,100 2,880 Climbing FlightAware ADS-B
Thu 07:34:52 -37.6470 144.7040 302° West 235 270 4,400 3,200 Climbing FlightAware ADS-B
Thu 07:35:02 -37.6400 144.6960 318° Northwest 237 273 4,900 2,857 Climbing FlightAware ADS-B
Thu 07:35:13 -37.6310 144.6870 322° Northwest 243 280 5,400 2,400 Climbing FlightAware ADS-B
Thu 07:35:22 -37.6190 144.6800 335° Northwest 258 297 5,700 1,200 Climbing FlightAware ADS-B
Thu 07:35:43 -37.5940 144.6690 341° North 293 337 6,000 1,050 Climbing FlightAware ADS-B
Thu 07:36:02 -37.5680 144.6590 343° North 323 372 6,400 1,750 Climbing FlightAware ADS-B
Thu 07:36:07 -37.5610 144.6580 354° North 324 373 6,700 3,000 Climbing FlightAware ADS-B
Thu 07:36:36 -37.5180 144.6700 354° North 329 379 8,100 3,500 Climbing FlightAware ADS-B
Thu 07:36:43 -37.5068 144.6792 354° North 333 383 8,800 3,200 Climbing Aus ATC (RADAR)
Thu 07:36:51 -37.5000 144.6900 41° Northeast 331 381 8,900 1,043 Climbing FlightAware ADS-B
Thu 07:37:06 -37.4890 144.7050 47° Northeast 339 390 9,200 2,291 Climbing FlightAware ADS-B
Thu 07:37:46 -37.4390 144.7720 47° Northeast 363 418 11,000 2,560 Climbing FlightAware ADS-B
Thu 07:38:21 -37.3960 144.8280 46° Northeast 379 436 12,400 2,160 Climbing FlightAware ADS-B
Thu 07:39:01 -37.3460 144.8950 47° Northeast 401 461 13,700 1,886 Climbing FlightAware ADS-B
Thu 07:39:31 -37.3060 144.9470 47° Northeast 421 484 14,600 2,516 Climbing FlightAware ADS-B
Thu 07:39:32 -37.3015 144.9527 47° Northeast 420 483 15,000 2,229 Climbing Aus ATC (RADAR)
Thu 07:40:06 -37.2580 145.0090 46° Northeast 429 494 15,900 2,000 Climbing FlightAware ADS-B
Thu 07:40:41 -37.2080 145.0750 46° Northeast 441 507 17,300 2,080 Climbing FlightAware ADS-B
Thu 07:41:21 -37.1510 145.1500 46° Northeast 449 517 18,500 1,800 Climbing FlightAware ADS-B
Thu 07:41:51 -37.1070 145.2070 46° Northeast 463 533 19,400 2,710 Climbing FlightAware ADS-B
Thu 07:41:52 -37.1019 145.2127 46° Northeast 458 527 19,900 1,886 Climbing Aus ATC (RADAR)
Thu 07:42:26 -37.0520 145.2720 43° Northeast 468 539 20,500 1,304 Climbing FlightAware ADS-B
Thu 07:43:01 -36.9910 145.3350 40° Northeast 484 557 21,400 1,629 Climbing FlightAware ADS-B
Thu 07:43:36 -36.9300 145.3970 39° Northeast 484 557 22,400 1,714 Climbing FlightAware ADS-B
Thu 07:44:11 -36.8690 145.4610 40° Northeast 496 571 23,400 1,543 Climbing FlightAware ADS-B
Thu 07:44:46 -36.8070 145.5250 40° Northeast 502 578 24,200 1,833 Climbing FlightAware ADS-B
Thu 07:44:47 -36.8010 145.5294 40° Northeast 500 575 24,500 1,500 Climbing Aus ATC (RADAR)
Thu 07:45:26 -36.7340 145.5990 39° Northeast 501 577 25,200 1,217 Climbing FlightAware ADS-B
Thu 07:45:56 -36.6800 145.6550 40° Northeast 507 583 25,900 1,292 Climbing FlightAware ADS-B
Thu 07:46:31 -36.6140 145.7220 39° Northeast 519 597 26,600 857 Climbing FlightAware ADS-B
Thu 07:47:06 -36.5490 145.7880 39° Northeast 528 608 26,900 880 Climbing FlightAware ADS-B
Thu 07:47:46 -36.4710 145.8670 39° Northeast 538 619 27,700 1,371 Climbing FlightAware ADS-B
Thu 07:48:16 -36.4130 145.9260 39° Northeast 539 620 28,500 1,477 Climbing FlightAware ADS-B
Thu 07:48:51 -36.3460 145.9940 39° Northeast 538 619 29,300 1,371 Climbing FlightAware ADS-B
Thu 07:49:26 -36.2790 146.0620 39° Northeast 537 618 30,100 1,457 Climbing FlightAware ADS-B
Thu 07:50:01 -36.2066 146.1337 39° Northeast 537 618 31,000 1,050 Climbing Aus ATC (RADAR)
Thu 07:50:06 -36.2010 146.1400 39° Northeast 539 620 30,800 857 Descending FlightAware ADS-B
Thu 07:50:36 -36.1386 146.2020 39° Northeast 540 621 31,500 857 Climbing Aus ATC (RADAR)
Thu 07:50:41 -36.1330 146.2080 39° Northeast 539 620 31,300 343 Descending FlightAware ADS-B
Thu 07:51:11 -36.0740 146.2670 39° Northeast 543 625 31,700 1,108 Climbing FlightAware ADS-B
Thu 07:51:46 -36.0007 146.3402 39° Northeast 551 634 32,500 857 Climbing Aus ATC (RADAR)
Thu 07:51:46 -36.0050 146.3360 39° Northeast 547 629 32,200 1,400 Descending FlightAware ADS-B
Thu 07:52:16 -35.9414 146.3997 39° Northeast 550 633 33,200 1,200 Climbing Aus ATC (RADAR)
Thu 07:52:26 -35.9260 146.4150 39° Northeast 545 627 33,000 -267 Descending FlightAware ADS-B
Thu 07:53:01 -35.8560 146.4840 39° Northeast 546 628 33,000  Level FlightAware ADS-B
Thu 07:53:31 -35.7960 146.5440 39° Northeast 546 628 33,000 300 Level FlightAware ADS-B
Thu 07:54:01 -35.7333 146.6067 39° Northeast 549 632 33,300  Climbing Aus ATC (RADAR)
Thu 07:54:06 -35.7260 146.6130 39° Northeast 545 627 33,000 -133 Descending FlightAware ADS-B
Thu 07:54:46 -35.6435 146.6941 39° Northeast 549 632 33,200  Climbing Aus ATC (RADAR)
Thu 07:54:47 -35.6470 146.6910 39° Northeast 543 625 33,000 -400 Descending FlightAware ADS-B
Thu 07:55:16 -35.5880 146.7500 39° Northeast 543 625 33,000  Level FlightAware ADS-B
Thu 07:55:56 -35.5090 146.8270 38° Northeast 544 626 33,000  Level FlightAware ADS-B
Thu 07:56:26 -35.4490 146.8860 39° Northeast 542 624 33,000  Level FlightAware ADS-B
Thu 07:57:01 -35.3800 146.9550 39° Northeast 543 625 33,000 450 Level FlightAware ADS-B
Thu 07:57:06 -35.3675 146.9679 39° Northeast 546 628 33,300  Climbing Aus ATC (RADAR)
Thu 07:57:36 -35.3110 147.0230 39° Northeast 544 626 33,000 -171 Descending FlightAware ADS-B
Thu 07:57:41 -35.2981 147.0360 39° Northeast 547 629 33,200  Climbing Aus ATC (RADAR)
Thu 07:58:11 -35.2400 147.0920 38° Northeast 550 633 33,000 -185 Descending FlightAware ADS-B
Thu 07:58:46 -35.1710 147.1590 38° Northeast 550 633 33,000  Level FlightAware ADS-B
Thu 07:59:26 -35.0910 147.2360 38° Northeast 551 634 33,000  Level FlightAware ADS-B
Thu 08:00:01 -35.0210 147.3030 38° Northeast 552 635 33,000  Level FlightAware ADS-B
Thu 08:00:31 -34.9610 147.3610 38° Northeast 551 634 33,000  Level FlightAware ADS-B
Thu 08:01:06 -34.8910 147.4290 39° Northeast 551 634 33,000 174 Level FlightAware ADS-B
Thu 08:01:40 -34.8187 147.4988 39° Northeast 549 632 33,200  Climbing Aus ATC (RADAR)
Thu 08:01:41 -34.8210 147.4960 39° Northeast 551 634 33,000 -333 Descending FlightAware ADS-B
Thu 08:02:16 -34.7510 147.5640 39° Northeast 551 634 33,000  Level FlightAware ADS-B
Thu 08:02:51 -34.6870 147.6240 38° Northeast 551 634 33,000 162 Level FlightAware ADS-B
Thu 08:03:30 -34.5988 147.7092 38° Northeast 547 629 33,200  Climbing Aus ATC (RADAR)
Thu 08:03:31 -34.6010 147.7070 38° Northeast 551 634 33,000 -364 Descending FlightAware ADS-B
Thu 08:04:03 -34.5430 147.7630 38° Northeast 553 636 33,000 529 Level FlightAware ADS-B
Thu 08:04:05 -34.5286 147.7763 38° Northeast 548 631 33,300  Climbing Aus ATC (RADAR)
Thu 08:04:37 -34.4690 147.8330 38° Northeast 552 635 33,000  Descending FlightAware ADS-B
Thu 08:05:10 -34.3981 147.8998 38° Northeast 547 629 33,300  Climbing Aus ATC (RADAR)
Thu 08:05:12 -34.3950 147.9020 38° Northeast 551 634 33,000 -474 Descending FlightAware ADS-B
Thu 08:05:48 -34.3300 147.9650 39° Northeast 551 634 33,000  Level FlightAware ADS-B
Thu 08:06:22 -34.2570 148.0330 38° Northeast 551 634 33,000 269 Level FlightAware ADS-B
Thu 08:06:55 -34.1876 148.0987 38° Northeast 547 629 33,300  Climbing Aus ATC (RADAR)
Thu 08:06:57 -34.1860 148.1000 38° Northeast 551 634 33,000 -486 Descending FlightAware ADS-B
Thu 08:07:32 -34.1170 148.1650 38° Northeast 550 633 33,000  Level FlightAware ADS-B
Thu 08:08:08 -34.0460 148.2320 38° Northeast 550 633 33,000  Level FlightAware ADS-B
Thu 08:08:43 -33.9740 148.2990 38° Northeast 549 632 33,000  Level FlightAware ADS-B
Thu 08:09:17 -33.9050 148.3640 38° Northeast 548 631 33,000  Level FlightAware ADS-B
Thu 08:09:53 -33.8330 148.4310 38° Northeast 547 629 33,000 164 Level FlightAware ADS-B
Thu 08:10:30 -33.7569 148.5017 38° Northeast 546 628 33,200  Climbing Aus ATC (RADAR)
Thu 08:10:32 -33.7540 148.5050 38° Northeast 546 628 33,000 -364 Descending FlightAware ADS-B
Thu 08:11:03 -33.6920 148.5620 38° Northeast 545 627 33,000 364 Level FlightAware ADS-B
Thu 08:11:05 -33.6869 148.5665 38° Northeast 546 628 33,200  Climbing Aus ATC (RADAR)
Thu 08:11:42 -33.6220 148.6270 38° Northeast 545 627 33,000 -174 Descending FlightAware ADS-B
Thu 08:12:14 -33.5540 148.6900 38° Northeast 544 626 33,000  Level FlightAware ADS-B
Thu 08:12:49 -33.4850 148.7530 37° Northeast 544 626 33,000  Level FlightAware ADS-B
Thu 08:13:24 -33.4150 148.8180 38° Northeast 536 617 33,000  Level FlightAware ADS-B
Thu 08:14:00 -33.3390 148.8880 38° Northeast 536 617 33,000  Level FlightAware ADS-B
Thu 08:14:35 -33.2700 148.9510 37° Northeast 544 626 33,000  Level FlightAware ADS-B
Thu 08:15:12 -33.2010 149.0150 37° Northeast 544 626 33,000 308 Level FlightAware ADS-B
Thu 08:15:14 -33.1894 149.0245 37° Northeast 539 620 33,200  Climbing Aus ATC (RADAR)
Thu 08:15:41 -33.1400 149.0700 37° Northeast 544 626 33,000 -182 Descending FlightAware ADS-B
Thu 08:16:20 -33.0610 149.1410 37° Northeast 546 628 33,000  Level FlightAware ADS-B
Thu 08:16:55 -32.9880 149.2080 38° Northeast 547 629 33,000  Level FlightAware ADS-B
Thu 08:17:30 -32.9180 149.2720 38° Northeast 547 629 33,000  Level FlightAware ADS-B
Thu 08:18:05 -32.8480 149.3350 37° Northeast 548 631 33,000  Level FlightAware ADS-B
Thu 08:18:40 -32.7790 149.3980 37° Northeast 550 633 33,000 308 Level FlightAware ADS-B
Thu 08:18:44 -32.7665 149.4086 37° Northeast 549 632 33,200  Climbing Aus ATC (RADAR)
Thu 08:19:15 -32.7090 149.4610 37° Northeast 550 633 33,000 -182 Descending FlightAware ADS-B
Thu 08:19:50 -32.6340 149.5280 37° Northeast 545 627 33,000 174 Level FlightAware ADS-B
Thu 08:20:24 -32.5642 149.5909 37° Northeast 550 633 33,200  Climbing Aus ATC (RADAR)
Thu 08:20:25 -32.5630 149.5920 37° Northeast 542 624 33,000 -333 Descending FlightAware ADS-B
Thu 08:21:00 -32.5000 149.6580 41° Northeast 542 624 33,000  Level FlightAware ADS-B
Thu 08:21:31 -32.4420 149.7170 41° Northeast 543 625 33,000  Level FlightAware ADS-B
Thu 08:22:11 -32.3630 149.7990 41° Northeast 542 624 33,000 279 Level FlightAware ADS-B
Thu 08:22:14 -32.3552 149.8067 41° Northeast 540 621 33,200 364 Climbing Aus ATC (RADAR)
Thu 08:22:44 -32.2979 149.8656 41° Northeast 539 620 33,200 -279 Level Aus ATC (RADAR)
Thu 08:22:57 -32.2790 149.8850 41° Northeast 541 623 33,000 -250 Descending FlightAware ADS-B
Thu 08:23:32 -32.2070 149.9590 41° Northeast 542 624 33,000 324 Level FlightAware ADS-B
Thu 08:23:34 -32.2027 149.9636 41° Northeast 538 619 33,200 255 Climbing Aus ATC (RADAR)
Thu 08:24:19 -32.1165 150.0520 41° Northeast 539 620 33,200 -250 Level Aus ATC (RADAR)
Thu 08:24:22 -32.1120 150.0570 41° Northeast 543 625 33,000 -316 Descending FlightAware ADS-B
Thu 08:24:57 -32.0460 150.1250 41° Northeast 550 633 33,000  Level FlightAware ADS-B
Thu 08:25:37 -31.9670 150.2040 40° Northeast 551 634 33,000  Level FlightAware ADS-B
Thu 08:26:19 -31.8940 150.2790 41° Northeast 553 636 33,000  Level FlightAware ADS-B
Thu 08:26:53 -31.8250 150.3490 41° Northeast 554 638 33,000  Level FlightAware ADS-B
Thu 08:27:37 -31.7340 150.4410 41° Northeast 550 633 33,000  Level FlightAware ADS-B
Thu 08:28:12 -31.6670 150.5090 41° Northeast 550 633 33,000  Level FlightAware ADS-B
Thu 08:28:47 -31.6000 150.5770 41° Northeast 550 633 33,000 333 Level FlightAware ADS-B
Thu 08:28:48 -31.5961 150.5805 41° Northeast 538 619 33,200  Climbing Aus ATC (RADAR)
Thu 08:29:22 -31.5340 150.6440 41° Northeast 551 634 33,000 -174 Descending FlightAware ADS-B
Thu 08:29:57 -31.4640 150.7130 40° Northeast 547 629 33,000  Level FlightAware ADS-B
Thu 08:30:32 -31.3980 150.7800 40° Northeast 539 620 33,000 293 Level FlightAware ADS-B
Thu 08:30:38 -31.3838 150.7936 40° Northeast 535 616 33,200  Climbing Aus ATC (RADAR)
Thu 08:31:07 -31.3300 150.8480 40° Northeast 540 621 33,000  Descending FlightAware ADS-B
Thu 08:31:08 -31.3266 150.8511 40° Northeast 534 615 33,200  Climbing Aus ATC (RADAR)
Thu 08:31:57 -31.2370 150.9410 41° Northeast 548 631 33,000 -143 Descending FlightAware ADS-B
Thu 08:32:32 -31.1690 151.0090 41° Northeast 553 636 33,000  Level FlightAware ADS-B
Thu 08:33:12 -31.1030 151.0740 40° Northeast 553 636 33,000  Level FlightAware ADS-B
Thu 08:33:47 -31.0440 151.1320 40° Northeast 553 636 33,000 333 Level FlightAware ADS-B
Thu 08:33:48 -31.0161 151.1601 40° Northeast 542 624 33,200  Climbing Aus ATC (RADAR)
Thu 08:34:24 -30.9830 151.1920 40° Northeast 553 636 33,000  Descending FlightAware ADS-B
Thu 08:35:01 -30.8820 151.2930 41° Northeast 33,000 174 Level FlightAware ADS-B
Thu 08:35:33 -30.8102 151.3634 41° Northeast 543 625 33,200  Climbing Aus ATC (RADAR)
Thu 08:35:35 -30.8140 151.3600 41° Northeast 555 639 33,000  Descending FlightAware ADS-B
Thu 08:36:08 -30.7429 151.4300 41° Northeast 536 617 33,200  Climbing Aus ATC (RADAR)
Thu 08:36:12 -30.7470 151.4270 41° Northeast 548 631 33,000 -300 Descending FlightAware ADS-B
Thu 08:36:48 -30.6870 151.4850 40° Northeast 548 631 33,000  Level FlightAware ADS-B
Thu 08:37:24 -30.6280 151.5430 40° Northeast 548 631 33,000  Level FlightAware ADS-B
Thu 08:38:00 -30.5680 151.6010 40° Northeast 548 631 33,000  Level FlightAware ADS-B
Thu 08:38:36 -30.5090 151.6580 40° Northeast 548 631 33,000  Level FlightAware ADS-B
Thu 08:39:12 -30.4490 151.7160 40° Northeast 548 631 33,000 79 Level FlightAware ADS-B
Thu 08:39:52 -30.3076 151.8552 40° Northeast 535 616 33,100 133 Climbing Aus ATC (RADAR)
Thu 08:40:42 -30.2120 151.9484 40° Northeast 528 608 33,200 71 Climbing Aus ATC (RADAR)
Thu 08:41:17 -30.1451 152.0132 40° Northeast 526 605 33,200 -167 Level Aus ATC (RADAR)
Thu 08:41:54 -30.0810 152.0770 40° Northeast 542 624 33,000 -182 Descending FlightAware ADS-B
Thu 08:42:23 -30.0184 152.1366 40° Northeast 542 624 33,000  Level FlightAware ADS-B
Thu 08:42:53 -29.9763 152.1771 40° Northeast 538 619 33,000  Level FlightAware ADS-B
Thu 08:43:32 -29.8884 152.2614 40° Northeast 531 611 33,000 81 Level FlightAware ADS-B
Thu 08:44:07 -29.8215 152.3248 40° Northeast 516 594 33,100  Climbing Aus ATC (RADAR)
Thu 08:44:11 -29.8128 152.3341 40° Northeast 531 611 33,000 -150 Descending FlightAware ADS-B
Thu 08:44:47 -29.7466 152.3979 40° Northeast 523 602 33,000  Level FlightAware ADS-B
Thu 08:45:23 -29.6879 152.4542 40° Northeast 520 598 33,000  Level FlightAware ADS-B
Thu 08:45:53 -29.6249 152.5142 40° Northeast 519 597 33,000  Level FlightAware ADS-B
Thu 08:46:23 -29.5729 152.5638 40° Northeast 518 596 33,000  Level FlightAware ADS-B
Thu 08:46:53 -29.5163 152.6176 40° Northeast 518 596 33,000  Level FlightAware ADS-B
Thu 08:47:23 -29.4625 152.6687 40° Northeast 518 596 33,000  Level FlightAware ADS-B
Thu 08:48:03 -29.3858 152.7417 40° Northeast 518 596 33,000  Level FlightAware ADS-B
Thu 08:48:54 -29.2930 152.8300 40° Northeast 517 595 33,000  Level FlightAware ADS-B
Thu 08:49:13 -29.2576 152.8630 39° Northeast 516 594 33,000  Level FlightAware ADS-B
Thu 08:49:43 -29.2003 152.9169 39° Northeast 512 589 33,000  Level FlightAware ADS-B
Thu 08:50:13 -29.1456 152.9683 39° Northeast 512 589 33,000  Level FlightAware ADS-B
Thu 08:50:43 -29.0916 153.0191 39° Northeast 508 585 33,000  Level FlightAware ADS-B
Thu 08:51:13 -29.0394 153.0686 40° Northeast 503 579 33,000  Level FlightAware ADS-B
Thu 08:51:43 -28.9836 153.1211 39° Northeast 501 577 33,000  Level FlightAware ADS-B
Thu 08:52:15 -28.9255 153.1755 39° Northeast 497 572 33,000  Level FlightAware ADS-B
Thu 08:52:51 -28.8617 153.2351 39° Northeast 495 570 33,000  Level FlightAware ADS-B
Thu 08:53:23 -28.8060 153.2870 39° Northeast 493 567 33,000  Level FlightAware ADS-B
Thu 08:53:53 -28.7536 153.3356 39° Northeast 494 568 33,000  Level FlightAware ADS-B
Thu 08:54:23 -28.7010 153.3846 39° Northeast 502 578 33,000  Level FlightAware ADS-B
Thu 08:54:53 -28.6464 153.4355 39° Northeast 501 577 33,000  Level FlightAware ADS-B
Thu 08:55:23 -28.5926 153.4859 39° Northeast 504 580 33,000  Level FlightAware ADS-B
Thu 08:55:53 -28.5374 153.5376 39° Northeast 504 580 33,000  Level FlightAware ADS-B
Thu 08:56:23 -28.4854 153.5858 39° Northeast 503 579 33,000  Level FlightAware ADS-B
Thu 08:56:58 -28.4241 153.6423 39° Northeast 502 578 33,000  Level FlightAware ADS-B
Thu 08:57:33 -28.3570 153.7042 39° Northeast 500 575 33,000  Level FlightAware ADS-B
Thu 08:58:03 -28.3052 153.7520 39° Northeast 499 574 33,000  Level FlightAware ADS-B
Thu 08:58:33 -28.2498 153.8029 39° Northeast 496 571 33,000  Level FlightAware ADS-B
Thu 08:59:03 -28.1987 153.8500 39° Northeast 496 571 33,000  Level FlightAware ADS-B
Thu 08:59:33 -28.1442 153.8999 39° Northeast 493 567 33,000  Level FlightAware ADS-B
Thu 09:00:03 -28.0903 153.9495 39° Northeast 493 567 33,000  Level FlightAware ADS-B
Thu 09:00:34 -28.0400 153.9960 39° Northeast 492 566 33,000  Level FlightAware ADS-B
Thu 09:00:43 -28.0194 154.0144 38° Northeast 493 567 33,000 250 Level FlightAware ADS-B
Thu 09:01:22 -27.9510 154.0771 39° Northeast 496 571 33,200 532 Climbing FlightAware ADS-B
Thu 09:02:02 -27.8779 154.1439 39° Northeast 500 575 33,700 800 Climbing FlightAware ADS-B
Thu 09:02:52 -27.7935 154.2206 39° Northeast 504 580 34,400 1,187 Climbing FlightAware ADS-B
Thu 09:03:33 -27.7147 154.2925 39° Northeast 493 567 35,500 1,778 Climbing FlightAware ADS-B
Thu 09:04:13 -27.6448 154.3562 39° Northeast 472 543 36,800 1,286 Climbing FlightAware ADS-B
Thu 09:04:43 -27.5939 154.4022 39° Northeast 474 545 37,000 200 Climbing FlightAware ADS-B
Thu 09:05:13 -27.5430 154.4484 39° Northeast 476 548 37,000  Level FlightAware ADS-B
Thu 09:05:43 -27.4930 154.4935 39° Northeast 475 547 37,000  Level FlightAware ADS-B
Thu 09:06:13 -27.4395 154.5418 39° Northeast 477 549 37,000  Level FlightAware ADS-B
Thu 09:06:43 -27.3907 154.5858 39° Northeast 476 548 37,000  Level FlightAware ADS-B
Thu 09:07:13 -27.3376 154.6341 39° Northeast 478 550 37,000  Level FlightAware ADS-B
Thu 09:07:33 -27.3078 154.6686 46° Northeast 489 563 37,000  Level FlightAware ADS-B
Thu 09:07:52 -27.2869 154.7135 62° Northeast 505 581 37,000  Level FlightAware ADS-B
Thu 09:08:22 -27.2693 154.7926 76° East 510 587 37,000  Level FlightAware ADS-B
Thu 09:08:53 -27.2531 154.8717 77° East 508 585 37,000  Level FlightAware ADS-B
Thu 09:09:23 -27.2386 154.9481 78° East 509 586 37,000  Level FlightAware ADS-B
Thu 09:09:53 -27.2240 155.0265 78° East 505 581 37,000  Level FlightAware ADS-B
Thu 09:10:23 -27.1989 155.0988 69° East 497 572 37,000  Level FlightAware ADS-B
Thu 09:10:53 -27.1745 155.1675 68° East 497 572 37,000  Level FlightAware ADS-B
Thu 09:11:23 -27.1487 155.2423 69° East 500 575 37,000  Level FlightAware ADS-B
Thu 09:12:03 -27.1186 155.3316 69° East 503 579 37,000  Level FlightAware ADS-B
Thu 09:13:00 -27.0760 155.4590 69° East 506 582 37,000 66 Level FlightAware ADS-B
Thu 09:13:34 -27.0413 155.5658 69° East 499 574 37,100  Climbing Aus ATC (RADAR)
Thu 09:13:36 -27.0500 155.5340 69° East 506 582 37,000 -158 Descending FlightAware ADS-B
Thu 09:14:12 -27.0240 155.6090 69° East 506 582 37,000  Level FlightAware ADS-B
Thu 09:14:43 -26.9860 155.7327 71° East 516 594 37,000  Level FlightAware ADS-B
Thu 09:15:13 -26.9600 155.8097 69° East 521 600 37,000 91 Level FlightAware ADS-B
Thu 09:15:49 -26.9278 155.9023 69° East 512 589 37,100  Climbing Aus ATC (RADAR)
Thu 09:16:00 -26.9260 155.9090 69° East 521 600 37,000 -182 Descending FlightAware ADS-B
Thu 09:16:22 -26.9002 155.9848 69° East 522 601 37,000  Level FlightAware ADS-B
Thu 09:16:52 -26.8748 156.0593 69° East 522 601 37,000  Level FlightAware ADS-B
Thu 09:17:22 -26.8485 156.1364 69° East 521 600 37,000  Level FlightAware ADS-B
Thu 09:17:52 -26.8225 156.2135 69° East 521 600 37,000  Level FlightAware ADS-B
Thu 09:18:52 -26.7718 156.3645 69° East 521 600 37,000  Level FlightAware ADS-B
Thu 09:19:23 -26.7461 156.4424 70° East 519 597 37,000 97 Level FlightAware ADS-B
Thu 09:19:54 -26.7211 156.5188 70° East 506 582 37,100  Climbing Aus ATC (RADAR)
Thu 09:20:04 -26.7170 156.5280 70° East 519 597 37,000 -207 Descending FlightAware ADS-B
Thu 09:20:23 -26.6980 156.5884 71° East 519 597 37,000 102 Level FlightAware ADS-B
Thu 09:21:03 -26.6640 156.6949 71° East 506 582 37,100  Climbing Aus ATC (RADAR)
Thu 09:21:16 -26.6590 156.7070 71° East 519 597 37,000 -150 Descending FlightAware ADS-B
Thu 09:21:43 -26.6307 156.7935 70° East 524 603 37,000  Level FlightAware ADS-B
Thu 09:22:13 -26.6070 156.8693 71° East 525 604 37,000  Level FlightAware ADS-B
Thu 09:22:43 -26.5853 156.9457 72° East 503 579 37,000  Level FlightAware ADS-B
Thu 09:23:24 -26.5630 157.0340 74° East 506 582 37,000  Level FlightAware ADS-B
Thu 09:24:00 -26.5430 157.1110 74° East 506 582 37,000  Level FlightAware ADS-B
Thu 09:24:36 -26.5230 157.1880 74° East 506 582 37,000  Level FlightAware ADS-B
Thu 09:24:59 -26.5163 157.2984 86° East 517 595 37,000  Level FlightAware ADS-B
Thu 09:25:44 -26.5010 157.3880 79° East 518 596 37,000  Level FlightAware ADS-B
Thu 09:26:20 -26.4870 157.4680 79° East 518 596 37,000  Level FlightAware ADS-B
Thu 09:26:56 -26.4730 157.5490 79° East 518 596 37,000  Level FlightAware ADS-B
Thu 09:27:32 -26.4590 157.6290 79° East 518 596 37,000  Level FlightAware ADS-B
Thu 09:28:08 -26.4450 157.7090 79° East 518 596 37,000  Level FlightAware ADS-B
Thu 09:28:44 -26.4310 157.7900 79° East 518 596 37,000  Level FlightAware ADS-B
Thu 09:29:20 -26.4170 157.8700 79° East 518 596 37,000  Level FlightAware ADS-B
Thu 09:29:56 -26.4030 157.9510 79° East 518 596 37,000  Level FlightAware ADS-B
Thu 09:30:32 -26.3890 158.0310 79° East 518 596 37,000  Level FlightAware ADS-B
Thu 09:31:08 -26.3750 158.1110 79° East 518 596 37,000  Level FlightAware ADS-B
Thu 09:31:44 -26.3610 158.1920 79° East 518 596 37,000  Level FlightAware ADS-B
Thu 09:32:20 -26.3470 158.2720 79° East 518 596 37,000  Level FlightAware ADS-B
Thu 09:32:48 -25.7645 158.2072 167° South 37,000  Level Aus ATC (Calculated)
Thu 09:32:56 -26.3330 158.3520 79° East 518 596 37,000  Level FlightAware ADS-B
Thu 09:33:32 -26.3190 158.4330 79° East 518 596 37,000  Level FlightAware ADS-B
Thu 09:34:08 -26.3050 158.5130 79° East 518 596 37,000  Level FlightAware ADS-B
Thu 09:34:44 -26.2910 158.5930 79° East 518 596 37,000  Level FlightAware ADS-B
Thu 09:37:00 -26.0866 158.8483 48° Northeast  Level Estimated
Thu 09:37:16 -25.1670 158.5790 29° Northeast 37,000  Level Aus ATC (Calculated)
Thu 09:37:46 -25.1192 158.6086 52° Northeast 37,000  Level Aus ATC (Calculated)
Thu 09:39:00 -25.0174 158.7548 52° Northeast  Level Estimated
Thu 09:40:00 -24.9348 158.8732 52° Northeast  Level Estimated
Thu 09:41:00 -24.8521 158.9915 52° Northeast  Level Estimated
Thu 09:42:00 -24.7692 159.1095 52° Northeast  Level Estimated
Thu 09:43:00 -24.6863 159.2275 52° Northeast  Level Estimated
Thu 09:44:00 -24.6033 159.3452 52° Northeast  Level Estimated
Thu 09:45:00 -24.5202 159.4629 52° Northeast  Level Estimated
Thu 09:46:00 -24.4370 159.5803 52° Northeast  Level Estimated
Thu 09:47:00 -24.3537 159.6976 52° Northeast  Level Estimated
Thu 09:48:00 -24.2704 159.8148 52° Northeast  Level Estimated
Thu 09:49:00 -24.1869 159.9318 52° Northeast  Level Estimated
Thu 09:49:00 -24.0805 159.8687 53° Northeast 37,000  Level Aus ATC (Calculated)
Thu 09:50:00 -23.9982 159.9865 53° Northeast  Level Estimated
Thu 09:51:00 -23.9159 160.1042 53° Northeast  Level Estimated
Thu 09:52:00 -23.8335 160.2217 53° Northeast  Level Estimated
Thu 09:52:00 -23.7883 160.2172 53° Northeast 37,000  Level Aus ATC (Calculated)
Thu 09:53:00 -23.7062 160.3349 53° Northeast  Level Estimated
Thu 09:54:00 -23.6240 160.4525 53° Northeast  Level Estimated
Thu 09:54:52 -23.5274 160.5264 360° North 37,000  Level Aus ATC (Calculated)
Thu 09:55:03 -23.5274 160.5264 47° Northeast 37,000  Level Aus ATC (Calculated)
Thu 09:56:07 -23.4609 160.6048 53° Northeast 37,000  Level Aus ATC (Calculated)
Thu 09:58:00 -23.3094 160.8221 53° Northeast  Level Estimated
Thu 09:59:00 -23.2289 160.9373 53° Northeast  Level Estimated
Thu 10:00:00 -23.1483 161.0523 53° Northeast  Level Estimated
Thu 10:01:00 -23.0676 161.1672 53° Northeast  Level Estimated
Thu 10:02:00 -22.9868 161.2820 53° Northeast  Level Estimated
Thu 10:03:00 -22.9059 161.3966 53° Northeast  Level Estimated
Thu 10:04:00 -22.8250 161.5111 53° Northeast  Level Estimated
Thu 10:04:00 -22.6850 161.5114 53° Northeast 37,000  Level Aus ATC (Calculated)
Thu 10:05:00 -22.6054 161.6268 53° Northeast  Level Estimated
Thu 10:06:00 -22.5257 161.7421 53° Northeast  Level Estimated
Thu 10:06:00 -22.4821 161.7458 71° East 37,000  Level Aus ATC (Calculated)
Thu 10:07:00 -22.4460 161.8572 53° Northeast  Level Estimated
Thu 10:08:00 -22.3234 161.9766 53° Northeast  Level Estimated
Thu 10:09:00 -22.2439 162.0918 53° Northeast  Level Estimated
Thu 10:10:00 -22.1643 162.2069 53° Northeast  Level Estimated
Thu 10:11:00 -22.0847 162.3218 53° Northeast  Level Estimated
Thu 10:12:00 -22.0050 162.4366 53° Northeast  Level Estimated
Thu 10:13:00 -21.9252 162.5513 53° Northeast  Level Estimated
Thu 10:14:00 -21.8453 162.6659 53° Northeast  Level Estimated
Thu 10:15:00 -21.7654 162.7803 53° Northeast  Level Estimated
Thu 10:16:00 -21.6853 162.8947 53° Northeast  Level Estimated
Thu 10:16:00 -21.4496 162.9222 153° Southeast 37,000  Level Aus ATC (Calculated)
Thu 10:17:00 -21.6052 163.0088 53° Northeast  Level Estimated
Thu 10:18:00 -21.2951 163.1546 55° Northeast  Level Estimated
Thu 10:18:00 -21.3236 163.0838 55° Northeast 1,600  Level Aus ATC (Calculated)
Thu 10:19:00 -21.2465 163.2001 55° Northeast  Level Estimated
Thu 10:20:00 -21.1694 163.3163 55° Northeast  Level Estimated
Thu 10:21:00 -21.0922 163.4324 55° Northeast  Level Estimated
Thu 10:21:00 -21.0957 163.4185 55° Northeast 1,600  Level Aus ATC (Calculated)
Thu 10:22:00 -21.0185 163.5345 55° Northeast  Level Estimated
Thu 10:22:01 -20.9815 163.5855 54° Northeast 1,600  Level Aus ATC (Calculated)
Thu 10:24:00 -20.8282 163.8152 54° Northeast  Level Estimated
Thu 10:25:00 -20.7508 163.9308 54° Northeast  Level Estimated
Thu 10:26:00 -20.6733 164.0464 54° Northeast  Level Estimated
Thu 10:27:00 -20.5957 164.1618 54° Northeast  Level Estimated
Thu 10:28:00 -20.5181 164.2771 54° Northeast  Level Estimated
Thu 10:29:00 -20.4404 164.3922 54° Northeast  Level Estimated
Thu 10:30:00 -20.3626 164.5073 54° Northeast  Level Estimated
Thu 10:31:00 -20.2847 164.6222 54° Northeast  Level Estimated
Thu 10:32:00 -20.2067 164.7370 54° Northeast  Level Estimated
Thu 10:33:00 -20.1287 164.8518 54° Northeast  Level Estimated
Thu 10:34:00 -20.0506 164.9664 54° Northeast  Level Estimated
Thu 10:35:00 -19.9725 165.0808 54° Northeast  Level Estimated
Thu 10:36:00 -19.8942 165.1952 54° Northeast  Level Estimated
Thu 10:37:00 -19.8159 165.3094 54° Northeast  Level Estimated
Thu 10:38:00 -19.7375 165.4236 54° Northeast  Level Estimated
Thu 10:39:00 -19.6590 165.5376 54° Northeast  Level Estimated
Thu 10:40:00 -19.5805 165.6515 54° Northeast  Level Estimated
Thu 10:41:00 -19.5019 165.7654 54° Northeast  Level Estimated
Thu 10:42:00 -19.4232 165.8790 54° Northeast  Level Estimated
Thu 10:43:00 -19.3445 165.9926 54° Northeast  Level Estimated
Thu 10:44:00 -19.2657 166.1061 54° Northeast  Level Estimated
Thu 10:45:00 -19.1868 166.2195 54° Northeast  Level Estimated
Thu 10:46:00 -19.1078 166.3327 54° Northeast  Level Estimated
Thu 10:47:00 -19.0288 166.4459 54° Northeast  Level Estimated
Thu 10:48:00 -18.9497 166.5589 54° Northeast  Level Estimated
Thu 10:49:00 -18.8706 166.6719 53° Northeast  Level Estimated
Thu 10:50:00 -18.7913 166.7847 53° Northeast  Level Estimated
Thu 10:51:00 -18.7120 166.8974 53° Northeast  Level Estimated
Thu 10:52:00 -18.6327 167.0100 53° Northeast  Level Estimated
Thu 10:53:00 -18.5532 167.1225 53° Northeast  Level Estimated
Thu 10:54:00 -18.4737 167.2350 53° Northeast  Level Estimated
Thu 10:55:00 -18.3942 167.3472 53° Northeast  Level Estimated
Thu 10:56:00 -18.3145 167.4595 53° Northeast  Level Estimated
Thu 10:57:00 -18.2348 167.5715 53° Northeast  Level Estimated
Thu 10:58:00 -18.1551 167.6835 53° Northeast  Level Estimated
Thu 10:59:00 -18.0752 167.7954 53° Northeast  Level Estimated
Thu 11:00:00 -17.9953 167.9072 53° Northeast  Level Estimated
Thu 11:01:00 -17.9154 168.0189 53° Northeast  Level Estimated
Thu 11:02:00 -17.8354 168.1305 53° Northeast  Level Estimated
Thu 11:03:00 -17.7553 168.2420 53° Northeast  Level Estimated
Thu 11:04:00 -17.6993 168.3198 53° Northeast  Level Estimated
Thu 11:05:00 -17.6993 168.3198 143° Southeast  Level Estimated
Thu 11:06:00 -17.6993 168.3198 37° Northeast  Level Estimated
Thu 11:07:00 -17.6993 168.3198 143° Southeast  Level Estimated
Thu 11:08:00 -17.6993 168.3198 37° Northeast  Level Estimated
Thu 11:09:00 -17.6993 168.3198 143° Southeast  Level Estimated
Thu 11:10:00 -17.6993 168.3198 37° Northeast  Level Estimated
Thu 11:11:00 -17.6993 168.3198 143° Southeast  Level Estimated
Thu 11:12:00 -17.6993 168.3198 37° Northeast  Level Estimated
Thu 11:13:00 -17.6993 168.3198 143° Southeast  Level Estimated
Thu 11:14:00 -17.6993 168.3198 37° Northeast  Level Estimated
Thu 11:15:00 -17.6993 168.3198 143° Southeast  Level Estimated
Thu 11:16:00 -17.6993 168.3198 37° Northeast  Level Estimated
Thu 11:17:00 -17.6993 168.3198 143° Southeast  Level Estimated
Thu 11:18:00 -17.6993 168.3198 37° Northeast  Level Estimated
Thu 11:19:00 -17.6993 168.3198 143° Southeast  Level Estimated
Thu 11:20:00 -17.6993 168.3198 37° Northeast  Level Estimated
Thu 11:21:00 -17.6993 168.3198 143° Southeast  Level Estimated
Thu 11:22:00 -17.6993 168.3198 37° Northeast  Level Estimated
Thu 11:23:00 -17.6993 168.3198 143° Southeast  Level Estimated
Thu 11:24:00 -17.6993 168.3198 37° Northeast  Level Estimated
Thu 11:25:00 -17.6993 168.3198 143° Southeast  Level Estimated
Thu 11:26:00 -17.6993 168.3198 37° Northeast  Level Estimated
Thu 11:27:00 -17.6993 168.3198 143° Southeast  Level Estimated

Login

Don't have an account? Register now (free) for customized features, flight alerts, and more!